LRSB - SIBIU

Compiled: 17:19:50 on 20/10/2018

Latest METAR/SPECI Reports

METAR LRSB 201700Z 26006KT 8000 NSC 11/09 Q1021=

Previous reports

METAR LRSB 201630Z 26007KT CAVOK 12/09 Q1021=
METAR LRSB 201600Z 25005KT CAVOK 11/08 Q1020=
METAR LRSB 201530Z 00000KT 9999 FEW036 15/10 Q1020=
METAR LRSB 201500Z 01003KT 9999 FEW036 16/09 Q1020=

Latest TAF report

TAF LRSB 201100Z 2012/2112 VRB04KT 9999 BKN030 BECMG 2102/2104 5000 RA BKN015 OVC030 TEMPO 2107/2112 3000 SHRA BKN010 SCT025CB OVC030=

Valid WARNINGS

No valid warnings for LRSB